Capitol Logistics 434


KELP
El Paso International Airport
El Paso, Texas, US
KSMF
Sacramento International Airport
Sacramento, California, US

Activity Log

Date Flight Route Aircraft Duration
01/02/2020 CPX434 ATKNN5 FLOGS ITUCO Q2 BOILE J50 EHF NURAY SUUTR2 B738 2h 56m
02/01/2019 CPX434 ATKNN5 FLOGS ITUCO Q2 BOILE J50 EHF NURAY SUUTR2 B752 2h 35m

Route Details

Aircraft Information
Primary: Boeing 757-200SF
Backup: Boeing 737-800BCF
Route Data
Distance: 852nm
Sched. Duration: 2h 35m
Avg. Duration: 2h 46m (+12m)
Times Flown: 2
Recm'd Route: ATKNN5 FLOGS ITUCO Q2 BOILE J50 EHF NURAY SUUTR2
Planned Altitude: 36,000ft
Origin Wx: KELP 071651Z 25007KT 230V290 10SM FEW120 SCT250 21/M02 A3014 RMK AO2 SLP149 T02111022
Dest. Wx: KSMF 071653Z 00000KT 10SM SCT110 SCT250 12/08 A3012 RMK AO2 SLP197 T01170083
Notes:

Financial History
Total Freight: 72,647lbs
Average Load: 36,324lbs/flt
Fuel Used: 33,604lbs
Avg. Fuel Used: 16,802lbs/flt
Fuel Expense: $30,244
Avg. Fuel Expense: $15,122
Avg. Fuel Cost: $0.90/lbs
Total Gross Income: $94,595
Pilot Pay: $298
Total Expenses: $10,320
Total Revenue: $53,118
Average Revenue: $47,297.72